createdAt,value
2018-11-11T00:02:02.681Z,9.30
2018-11-11T00:04:32.893Z,8.22
2018-11-11T00:07:01.748Z,9.20
2018-11-11T00:09:30.309Z,8.57
2018-11-11T00:11:59.554Z,9.25
2018-11-11T00:14:28.687Z,8.73
2018-11-11T00:16:57.290Z,8.48
2018-11-11T00:19:28.043Z,8.62
2018-11-11T00:21:57.876Z,7.82
2018-11-11T00:24:26.563Z,9.15
2018-11-11T00:26:55.764Z,8.21
2018-11-11T00:29:24.859Z,9.37
2018-11-11T00:31:53.908Z,8.66
2018-11-11T00:34:22.943Z,8.44
2018-11-11T00:36:51.689Z,8.27
2018-11-11T00:39:21.841Z,8.54
2018-11-11T00:41:50.902Z,8.61
2018-11-11T00:44:19.543Z,7.57
2018-11-11T00:46:48.430Z,8.46
2018-11-11T00:49:17.363Z,9.30
2018-11-11T00:51:46.135Z,8.46
2018-11-11T00:54:15.132Z,7.99
2018-11-11T00:56:44.077Z,8.02
2018-11-11T00:59:13.097Z,8.29
2018-11-11T01:01:41.690Z,8.52
2018-11-11T01:04:11.239Z,9.14
2018-11-11T01:06:39.963Z,8.02
2018-11-11T01:09:09.034Z,7.69
2018-11-11T01:11:38.530Z,8.21
2018-11-11T01:14:07.727Z,8.85
2018-11-11T01:16:36.753Z,8.45
2018-11-11T01:19:06.327Z,8.16
2018-11-11T01:21:35.325Z,7.98
2018-11-11T01:24:04.223Z,8.82
2018-11-11T01:26:34.965Z,8.48
2018-11-11T01:29:03.623Z,7.80
2018-11-11T01:31:33.124Z,8.25
2018-11-11T01:34:01.836Z,7.69
2018-11-11T01:36:30.944Z,8.30
2018-11-11T01:38:59.696Z,8.13
2018-11-11T01:41:29.850Z,7.85
2018-11-11T01:43:59.377Z,7.90
2018-11-11T01:46:28.347Z,7.94
2018-11-11T01:48:57.919Z,8.22
2018-11-11T01:51:28.626Z,7.85
2018-11-11T01:53:57.379Z,8.68
2018-11-11T01:56:26.163Z,8.01
2018-11-11T01:58:54.742Z,8.01
2018-11-11T02:01:23.814Z,7.53
2018-11-11T02:03:52.851Z,7.57
2018-11-11T02:06:21.845Z,7.46
2018-11-11T02:08:50.576Z,7.18
2018-11-11T02:11:20.325Z,7.24
2018-11-11T02:13:49.466Z,8.22
2018-11-11T02:16:18.412Z,7.39
2018-11-11T02:18:47.505Z,9.09
2018-11-11T02:21:16.494Z,7.28
2018-11-11T02:23:45.243Z,7.41
2018-11-11T02:26:13.867Z,8.47
2018-11-11T02:28:42.602Z,7.58
2018-11-11T02:31:11.555Z,7.92
2018-11-11T02:33:40.249Z,7.51
2018-11-11T02:36:09.055Z,8.14
2018-11-11T02:38:38.119Z,8.27
2018-11-11T02:41:07.280Z,8.36
2018-11-11T02:43:36.151Z,7.69
2018-11-11T02:46:05.129Z,7.44
2018-11-11T02:48:34.569Z,7.33
2018-11-11T02:51:03.326Z,7.86
2018-11-11T02:53:32.088Z,7.34
2018-11-11T02:56:00.815Z,6.98
2018-11-11T02:58:29.641Z,7.29
2018-11-11T03:00:58.396Z,6.93
2018-11-11T03:03:27.930Z,7.56
2018-11-11T03:05:56.442Z,7.03
2018-11-11T03:08:25.275Z,7.72
2018-11-11T03:10:54.349Z,7.73
2018-11-11T03:13:23.069Z,7.62
2018-11-11T03:15:52.026Z,7.16
2018-11-11T03:18:21.062Z,7.03
2018-11-11T03:20:49.671Z,8.15
2018-11-11T03:23:18.341Z,8.57
2018-11-11T03:25:47.144Z,7.57
2018-11-11T03:28:15.982Z,7.13
2018-11-11T03:30:44.703Z,6.88
2018-11-11T03:33:13.485Z,7.02
2018-11-11T03:35:42.363Z,6.81
2018-11-11T03:38:11.109Z,7.29
2018-11-11T03:40:39.776Z,7.52
2018-11-11T03:43:08.852Z,7.17
2018-11-11T03:45:37.605Z,6.96
2018-11-11T03:48:06.339Z,7.39
2018-11-11T03:50:35.006Z,8.50
2018-11-11T03:53:03.837Z,7.31
2018-11-11T03:55:32.463Z,7.97
2018-11-11T03:58:01.065Z,8.21
2018-11-11T04:00:29.767Z,8.76
2018-11-11T04:02:58.966Z,8.34
2018-11-11T04:05:27.646Z,8.23
2018-11-11T04:07:56.151Z,8.98
2018-11-11T04:10:24.911Z,8.38
2018-11-11T04:12:53.932Z,8.61
2018-11-11T04:15:22.702Z,8.04
2018-11-11T04:17:51.527Z,8.60
2018-11-11T04:20:21.253Z,8.27
2018-11-11T04:22:49.942Z,8.16
2018-11-11T04:25:19.552Z,7.52
2018-11-11T04:27:48.057Z,8.22
2018-11-11T04:30:16.864Z,8.36
2018-11-11T04:32:45.913Z,7.38
2018-11-11T04:35:14.760Z,7.13
2018-11-11T04:37:43.467Z,7.07
2018-11-11T04:40:12.991Z,7.90
2018-11-11T04:42:42.034Z,7.34
2018-11-11T04:45:12.997Z,7.75
2018-11-11T04:47:41.542Z,6.88
2018-11-11T04:50:12.702Z,7.80
2018-11-11T04:52:42.022Z,8.12
2018-11-11T04:55:11.338Z,7.81
2018-11-11T04:57:40.126Z,8.36
2018-11-11T05:03:05.932Z,7.82
2018-11-11T05:05:34.654Z,8.22
2018-11-11T05:08:03.694Z,7.36
2018-11-11T05:10:32.653Z,7.52
2018-11-11T05:13:01.385Z,7.95
2018-11-11T05:15:30.410Z,8.18
2018-11-11T05:17:58.962Z,8.57
2018-11-11T05:20:27.851Z,8.79
2018-11-11T05:22:56.656Z,8.34
2018-11-11T05:25:25.561Z,9.26
2018-11-11T05:27:54.486Z,8.23
2018-11-11T05:30:23.152Z,8.10
2018-11-11T05:32:52.030Z,8.61
2018-11-11T05:35:20.929Z,8.14
2018-11-11T05:37:49.819Z,8.40
2018-11-11T05:40:18.737Z,8.28
2018-11-11T05:42:47.558Z,8.27
2018-11-11T05:45:16.649Z,7.62
2018-11-11T05:47:45.396Z,7.06
2018-11-11T05:50:15.550Z,8.23
2018-11-11T05:52:45.270Z,7.88
2018-11-11T05:55:13.886Z,7.35
2018-11-11T05:57:42.947Z,8.42
2018-11-11T06:00:13.600Z,7.94
2018-11-11T06:02:42.293Z,7.47
2018-11-11T06:05:12.311Z,7.63
2018-11-11T06:07:41.166Z,7.40
2018-11-11T06:10:11.461Z,7.65
2018-11-11T06:12:39.975Z,7.25
2018-11-11T06:15:10.612Z,7.13
2018-11-11T06:17:39.418Z,6.96
2018-11-11T06:20:10.810Z,7.34
2018-11-11T06:22:39.278Z,8.08
2018-11-11T06:25:08.058Z,8.42
2018-11-11T06:27:37.020Z,7.87
2018-11-11T06:30:06.468Z,7.38
2018-11-11T06:32:35.236Z,8.57
2018-11-11T06:35:04.403Z,8.36
2018-11-11T06:37:33.191Z,8.25
2018-11-11T06:40:01.699Z,7.25
2018-11-11T06:42:30.699Z,7.33
2018-11-11T06:44:59.557Z,8.77
2018-11-11T06:47:28.474Z,7.84
2018-11-11T06:49:57.742Z,7.78
2018-11-11T06:52:27.413Z,7.65
2018-11-11T06:55:00.363Z,8.81
2018-11-11T06:57:29.113Z,8.16
2018-11-11T06:59:58.050Z,7.66
2018-11-11T07:02:34.738Z,7.37
2018-11-11T07:05:03.850Z,7.38
2018-11-11T07:07:32.755Z,8.24
2018-11-11T07:10:01.648Z,7.36
2018-11-11T07:12:30.982Z,7.64
2018-11-11T07:14:59.609Z,8.25
2018-11-11T07:17:28.741Z,7.87
2018-11-11T07:19:58.076Z,8.57
2018-11-11T07:22:26.866Z,8.64
2018-11-11T07:24:56.142Z,7.42
2018-11-11T07:27:24.919Z,8.27
2018-11-11T07:29:54.133Z,7.74
2018-11-11T07:32:23.942Z,8.41
2018-11-11T07:34:54.049Z,7.89
2018-11-11T07:37:24.175Z,7.82
2018-11-11T07:39:54.282Z,8.35
2018-11-11T07:42:24.549Z,9.44
2018-11-11T07:44:54.217Z,10.27
2018-11-11T07:47:23.193Z,9.44
2018-11-11T07:49:52.675Z,9.50
2018-11-11T07:52:21.970Z,9.36
2018-11-11T07:54:55.369Z,8.60
2018-11-11T07:57:24.485Z,8.05
2018-11-11T07:59:55.251Z,7.90
2018-11-11T08:02:24.224Z,7.68
2018-11-11T08:04:53.253Z,7.63
2018-11-11T08:07:24.043Z,7.69
2018-11-11T08:09:54.450Z,7.72
2018-11-11T08:12:23.765Z,7.81
2018-11-11T08:14:52.474Z,7.81
2018-11-11T08:17:22.057Z,7.89
2018-11-11T08:19:51.598Z,7.76
2018-11-11T08:22:20.974Z,7.76
2018-11-11T08:24:49.616Z,7.93
2018-11-11T08:27:19.073Z,8.00
2018-11-11T08:29:48.378Z,8.02
2018-11-11T08:32:17.721Z,7.99
2018-11-11T08:34:48.908Z,8.20
2018-11-11T08:37:24.199Z,8.25
2018-11-11T08:39:53.782Z,8.15
2018-11-11T08:42:23.264Z,8.11
2018-11-11T08:44:55.450Z,8.14
2018-11-11T08:47:25.647Z,8.17
2018-11-11T08:49:55.840Z,8.21
2018-11-11T08:52:27.717Z,8.27
2018-11-11T08:54:57.162Z,8.31
2018-11-11T08:57:30.488Z,8.22
2018-11-11T09:00:02.034Z,8.31
2018-11-11T09:02:30.994Z,8.39
2018-11-11T09:05:01.491Z,8.32
2018-11-11T09:07:30.414Z,8.32
2018-11-11T09:10:01.136Z,8.30
2018-11-11T09:12:32.280Z,8.22
2018-11-11T09:15:09.457Z,8.28
2018-11-11T09:17:47.614Z,8.26
2018-11-11T09:20:18.069Z,8.26
2018-11-11T09:22:49.255Z,8.21
2018-11-11T09:25:19.458Z,8.19
2018-11-11T09:27:48.726Z,8.45
2018-11-11T09:30:19.406Z,8.48
2018-11-11T09:32:49.835Z,8.56
2018-11-11T09:35:19.331Z,8.55
2018-11-11T09:37:48.491Z,8.60
2018-11-11T09:40:17.782Z,8.54
2018-11-11T09:42:46.522Z,8.68
2018-11-11T09:45:17.605Z,8.61
2018-11-11T09:47:48.272Z,8.70
2018-11-11T09:50:18.102Z,8.70
2018-11-11T09:52:49.582Z,8.75
2018-11-11T09:55:26.332Z,8.75
2018-11-11T09:58:01.139Z,8.58
2018-11-11T10:00:35.179Z,8.51
2018-11-11T10:03:09.373Z,8.71
2018-11-11T10:05:54.836Z,8.84
2018-11-11T10:08:34.641Z,9.05
2018-11-11T10:11:13.466Z,8.88
2018-11-11T10:13:53.189Z,8.96
2018-11-11T10:16:38.612Z,8.92
2018-11-11T10:19:28.831Z,8.95
2018-11-11T10:22:04.580Z,8.98
2018-11-11T10:24:46.708Z,8.91
2018-11-11T10:27:33.349Z,8.97
2018-11-11T10:30:18.591Z,8.96
2018-11-11T10:33:46.971Z,8.86
2018-11-11T10:36:54.978Z,8.88
2018-11-11T10:40:44.951Z,8.93
2018-11-11T10:46:58.340Z,8.96
2018-11-11T10:49:47.502Z,9.00
2018-11-11T10:52:28.079Z,8.99
2018-11-11T10:55:04.343Z,9.03
2018-11-11T10:57:47.179Z,9.11
2018-11-11T11:00:25.558Z,9.18
2018-11-11T11:03:01.156Z,9.14
2018-11-11T11:05:37.192Z,9.16
2018-11-11T11:08:11.041Z,9.17
2018-11-11T11:10:48.911Z,9.18
2018-11-11T11:13:28.302Z,9.07
2018-11-11T11:16:00.230Z,9.08
2018-11-11T11:21:22.586Z,9.14
2018-11-11T11:24:02.886Z,9.17
2018-11-11T11:26:37.050Z,9.17
2018-11-11T11:29:15.504Z,9.21
2018-11-11T11:31:50.395Z,9.19
2018-11-11T11:34:29.525Z,9.22
2018-11-11T11:37:02.052Z,9.21
2018-11-11T11:39:42.642Z,9.23
2018-11-11T11:42:20.386Z,9.21
2018-11-11T11:44:54.462Z,9.22
2018-11-11T11:47:37.287Z,9.23
2018-11-11T11:50:10.288Z,9.26
2018-11-11T11:52:47.339Z,9.29
2018-11-11T11:55:20.493Z,9.32
2018-11-11T11:58:08.011Z,9.36
2018-11-11T12:00:48.071Z,9.31
2018-11-11T12:03:36.591Z,9.37
2018-11-11T12:06:10.473Z,9.37
2018-11-11T12:08:46.521Z,9.40
2018-11-11T12:11:37.416Z,9.41
2018-11-11T12:14:10.431Z,9.30
2018-11-11T12:16:40.989Z,9.35
2018-11-11T12:19:17.112Z,9.51
2018-11-11T12:21:51.719Z,9.51
2018-11-11T12:24:24.662Z,9.57
2018-11-11T12:27:11.416Z,9.88
2018-11-11T12:29:44.373Z,10.32
2018-11-11T12:32:17.495Z,10.21
2018-11-11T12:34:47.204Z,10.14
2018-11-11T12:37:19.967Z,10.15
2018-11-11T12:39:56.484Z,10.29
2018-11-11T12:42:27.250Z,10.18
2018-11-11T12:44:57.276Z,10.25
2018-11-11T12:47:32.210Z,10.19
2018-11-11T12:50:04.833Z,10.24
2018-11-11T12:52:39.167Z,10.45
2018-11-11T12:55:17.514Z,10.54
2018-11-11T12:57:51.258Z,11.01
2018-11-11T13:00:24.217Z,11.29
2018-11-11T13:03:04.831Z,11.50
2018-11-11T13:05:37.339Z,11.96
2018-11-11T13:08:16.021Z,12.52
2018-11-11T13:10:46.697Z,12.31
2018-11-11T13:13:18.656Z,12.05
2018-11-11T13:15:51.653Z,12.47
2018-11-11T13:18:27.964Z,11.94
2018-11-11T13:21:03.703Z,13.68
2018-11-11T13:23:40.389Z,14.15
2018-11-11T13:26:16.432Z,13.21
2018-11-11T13:28:54.831Z,13.21
2018-11-11T13:31:37.533Z,13.27
2018-11-11T13:34:13.403Z,12.70
2018-11-11T13:36:54.629Z,12.06
2018-11-11T13:39:41.154Z,11.90
2018-11-11T13:42:19.743Z,12.31
2018-11-11T13:44:54.009Z,12.65
2018-11-11T13:47:28.838Z,12.83
2018-11-11T13:50:00.862Z,12.10
2018-11-11T13:52:37.828Z,11.94
2018-11-11T13:55:14.776Z,11.80
2018-11-11T13:57:46.843Z,11.76
2018-11-11T14:00:27.705Z,11.74
2018-11-11T14:03:02.288Z,11.70
2018-11-11T14:05:35.131Z,11.64
2018-11-11T14:08:13.058Z,11.67
2018-11-11T14:10:49.737Z,11.64
2018-11-11T14:13:23.006Z,11.62
2018-11-11T14:15:56.789Z,11.59
2018-11-11T14:18:42.306Z,11.60
2018-11-11T14:21:16.958Z,11.60
2018-11-11T14:23:55.395Z,11.52
2018-11-11T14:26:32.983Z,11.47
2018-11-11T14:29:12.005Z,11.51
2018-11-11T14:31:42.839Z,11.50
2018-11-11T14:34:16.828Z,11.42
2018-11-11T14:36:47.859Z,11.40
2018-11-11T14:39:32.210Z,11.38
2018-11-11T14:42:13.116Z,11.34
2018-11-11T14:44:48.841Z,11.30
2018-11-11T14:47:25.429Z,11.26
2018-11-11T14:50:02.451Z,11.20
2018-11-11T14:52:36.472Z,11.18
2018-11-11T14:55:10.562Z,11.09
2018-11-11T14:57:41.728Z,11.03
2018-11-11T15:00:26.046Z,10.99
2018-11-11T15:03:08.967Z,10.94
2018-11-11T15:05:43.793Z,10.93
2018-11-11T15:08:17.356Z,10.85
2018-11-11T15:10:49.838Z,10.74
2018-11-11T15:13:24.652Z,10.87
2018-11-11T15:16:04.802Z,10.79
2018-11-11T15:18:40.459Z,10.77
2018-11-11T15:21:14.198Z,10.71
2018-11-11T15:26:24.201Z,10.66
2018-11-11T15:29:18.798Z,10.51
2018-11-11T15:31:50.378Z,10.45
2018-11-11T15:34:25.861Z,10.45
2018-11-11T15:37:01.355Z,10.35
2018-11-11T15:39:41.391Z,10.36
2018-11-11T15:42:16.128Z,10.34
2018-11-11T15:44:48.482Z,10.35
2018-11-11T15:47:19.344Z,10.27
2018-11-11T15:49:50.262Z,10.32
2018-11-11T15:52:28.083Z,10.18
2018-11-11T15:55:00.901Z,10.12
2018-11-11T15:57:33.264Z,10.14
2018-11-11T16:00:09.041Z,10.18
2018-11-11T16:02:44.041Z,10.08
2018-11-11T16:05:16.988Z,10.05
2018-11-11T16:07:57.738Z,10.05
2018-11-11T16:10:37.519Z,10.09
2018-11-11T16:13:09.742Z,10.07
2018-11-11T16:15:41.788Z,10.06
2018-11-11T16:18:15.761Z,10.01
2018-11-11T16:20:46.449Z,9.86
2018-11-11T16:23:20.902Z,9.60
2018-11-11T16:25:58.119Z,9.83
2018-11-11T16:28:34.120Z,9.76
2018-11-11T16:33:48.474Z,9.84
2018-11-11T16:36:18.428Z,9.74
2018-11-11T16:38:58.365Z,9.78
2018-11-11T16:41:29.128Z,9.84
2018-11-11T16:44:02.932Z,9.81
2018-11-11T16:46:34.093Z,9.79
2018-11-11T16:49:05.514Z,9.77
2018-11-11T16:51:38.594Z,9.76
2018-11-11T16:54:08.540Z,9.72
2018-11-11T16:56:37.853Z,9.66
2018-11-11T16:59:12.668Z,9.66
2018-11-11T17:01:43.529Z,9.55
2018-11-11T17:04:13.955Z,9.49
2018-11-11T17:06:47.690Z,9.12
2018-11-11T17:09:20.274Z,9.16
2018-11-11T17:11:51.312Z,9.43
2018-11-11T17:14:20.817Z,9.42
2018-11-11T17:16:52.527Z,9.49
2018-11-11T17:19:28.936Z,9.53
2018-11-11T17:22:02.975Z,9.51
2018-11-11T17:24:34.941Z,9.57
2018-11-11T17:27:07.098Z,9.65
2018-11-11T17:29:41.251Z,9.56
2018-11-11T17:32:12.321Z,9.48
2018-11-11T17:34:44.222Z,9.39
2018-11-11T17:37:14.734Z,9.59
2018-11-11T17:39:45.173Z,9.63
2018-11-11T17:42:19.987Z,9.63
2018-11-11T17:44:52.915Z,9.57
2018-11-11T17:47:25.655Z,9.58
2018-11-11T17:50:01.103Z,9.59
2018-11-11T17:52:32.436Z,9.62
2018-11-11T17:55:08.757Z,9.75
2018-11-11T17:57:43.277Z,9.75
2018-11-11T18:00:20.431Z,9.53
2018-11-11T18:02:58.076Z,9.72
2018-11-11T18:05:38.869Z,9.52
2018-11-11T18:08:12.071Z,9.51
2018-11-11T18:10:47.509Z,9.52
2018-11-11T18:13:20.625Z,9.43
2018-11-11T18:16:08.904Z,9.40
2018-11-11T18:18:43.785Z,9.39
2018-11-11T18:21:49.067Z,9.43
2018-11-11T18:24:23.894Z,9.32
2018-11-11T18:27:03.436Z,9.39
2018-11-11T18:29:38.317Z,9.38
2018-11-11T18:32:11.976Z,9.40
2018-11-11T18:34:50.950Z,9.28
2018-11-11T18:37:28.492Z,9.16
2018-11-11T18:40:01.732Z,9.29
2018-11-11T18:42:35.623Z,9.13
2018-11-11T18:45:13.122Z,8.98
2018-11-11T18:47:45.973Z,8.74
2018-11-11T18:50:27.197Z,8.83
2018-11-11T18:53:01.686Z,8.80
2018-11-11T18:55:34.522Z,8.64
2018-11-11T18:58:07.370Z,8.73
2018-11-11T19:00:50.887Z,8.71
2018-11-11T19:03:23.426Z,8.72
2018-11-11T19:05:54.809Z,8.62
2018-11-11T19:08:32.408Z,8.73
2018-11-11T19:11:21.606Z,8.55
2018-11-11T19:13:52.470Z,8.44
2018-11-11T19:16:28.436Z,8.38
2018-11-11T19:21:52.761Z,8.13
2018-11-11T19:24:29.637Z,8.18
2018-11-11T19:27:08.954Z,8.36
2018-11-11T19:29:48.150Z,8.19
2018-11-11T19:32:23.962Z,8.02
2018-11-11T19:35:12.872Z,8.12
2018-11-11T19:37:48.226Z,8.23
2018-11-11T19:40:25.302Z,8.02
2018-11-11T19:43:06.567Z,7.92
2018-11-11T19:45:43.771Z,7.97
2018-11-11T19:48:18.737Z,7.90
2018-11-11T19:50:51.328Z,8.24
2018-11-11T19:56:14.596Z,8.53
2018-11-11T19:58:48.807Z,8.34
2018-11-11T20:01:25.415Z,8.19
2018-11-11T20:03:58.491Z,8.09
2018-11-11T20:06:35.565Z,7.91
2018-11-11T20:09:21.658Z,8.06
2018-11-11T20:12:03.586Z,8.50
2018-11-11T20:14:37.973Z,8.79
2018-11-11T20:17:17.284Z,8.76
2018-11-11T20:19:54.341Z,8.53
2018-11-11T20:22:28.961Z,8.14
2018-11-11T20:25:01.838Z,8.13
2018-11-11T20:27:34.301Z,8.24
2018-11-11T20:30:10.083Z,8.03
2018-11-11T20:35:32.472Z,7.77
2018-11-11T20:38:08.621Z,8.11
2018-11-11T20:40:50.619Z,7.86
2018-11-11T20:43:22.610Z,7.88
2018-11-11T20:45:57.950Z,7.94
2018-11-11T20:48:31.964Z,8.03
2018-11-11T20:51:04.054Z,7.87
2018-11-11T20:53:35.344Z,7.87
2018-11-11T20:56:09.258Z,7.90
2018-11-11T20:58:39.763Z,7.94
2018-11-11T21:01:13.644Z,8.21
2018-11-11T21:03:43.955Z,8.18
2018-11-11T21:06:14.923Z,8.17
2018-11-11T21:08:45.591Z,8.33
2018-11-11T21:11:17.960Z,8.55
2018-11-11T21:13:49.746Z,8.60
2018-11-11T21:16:22.769Z,9.11
2018-11-11T21:18:55.057Z,9.29
2018-11-11T21:21:32.681Z,9.32
2018-11-11T21:24:08.976Z,9.46
2018-11-11T21:26:49.975Z,9.53
2018-11-11T21:29:23.331Z,9.67
2018-11-11T21:31:58.315Z,9.71
2018-11-11T21:34:27.804Z,9.72
2018-11-11T21:36:59.722Z,9.79
2018-11-11T21:39:32.636Z,9.82
2018-11-11T21:42:04.592Z,9.79
2018-11-11T21:44:36.046Z,9.79
2018-11-11T21:47:07.341Z,9.78
2018-11-11T21:49:38.189Z,9.88
2018-11-11T21:52:11.737Z,9.94
2018-11-11T21:54:43.796Z,9.92
2018-11-11T21:57:17.175Z,9.85
2018-11-11T21:59:48.233Z,9.79
2018-11-11T22:02:19.477Z,9.84
2018-11-11T22:04:52.710Z,9.80
2018-11-11T22:07:36.996Z,9.72
2018-11-11T22:10:10.606Z,9.68
2018-11-11T22:12:44.522Z,9.84
2018-11-11T22:15:13.721Z,9.88
2018-11-11T22:17:50.960Z,9.82
2018-11-11T22:20:22.850Z,9.84
2018-11-11T22:22:52.835Z,9.80
2018-11-11T22:25:24.394Z,9.83
2018-11-11T22:27:53.796Z,9.87
2018-11-11T22:30:23.622Z,9.86
2018-11-11T22:32:53.528Z,9.85
2018-11-11T22:35:23.282Z,9.87
2018-11-11T22:37:52.801Z,9.81
2018-11-11T22:40:22.230Z,9.84
2018-11-11T22:42:51.302Z,9.85
2018-11-11T22:45:21.193Z,9.88
2018-11-11T22:47:52.078Z,9.88
2018-11-11T22:50:21.519Z,9.84
2018-11-11T22:52:50.602Z,9.72
2018-11-11T22:55:23.346Z,9.77
2018-11-11T22:57:53.775Z,9.76
2018-11-11T23:00:28.493Z,9.75
2018-11-11T23:02:58.749Z,9.77
2018-11-11T23:05:27.884Z,9.77
2018-11-11T23:07:57.538Z,9.80
2018-11-11T23:10:27.885Z,9.84
2018-11-11T23:12:56.449Z,9.79
2018-11-11T23:15:25.339Z,9.87
2018-11-11T23:17:54.796Z,9.86
2018-11-11T23:20:23.988Z,9.86
2018-11-11T23:22:52.904Z,9.79
2018-11-11T23:25:21.543Z,9.82
2018-11-11T23:27:50.713Z,9.88
2018-11-11T23:30:20.645Z,9.90
2018-11-11T23:32:49.827Z,9.83
2018-11-11T23:35:19.014Z,9.84
2018-11-11T23:37:47.840Z,9.83
2018-11-11T23:40:17.622Z,9.84
2018-11-11T23:42:47.062Z,9.88
2018-11-11T23:45:15.938Z,9.90
2018-11-11T23:47:46.237Z,9.90
2018-11-11T23:50:16.227Z,9.89
2018-11-11T23:52:45.565Z,9.91
2018-11-11T23:55:16.146Z,9.89
2018-11-11T23:57:44.759Z,9.86
